sensor_id;sensor_type;location;lat;lon;timestamp;P1;durP1;ratioP1;P2;durP2;ratioP2
6346;SDS011;3206;42.666;23.600;2022-12-29T00:00:11;0.87;;;0.87;;
6346;SDS011;3206;42.666;23.600;2022-12-29T00:02:37;1.03;;;1.03;;
6346;SDS011;3206;42.666;23.600;2022-12-29T00:05:04;0.90;;;0.90;;
6346;SDS011;3206;42.666;23.600;2022-12-29T00:07:31;0.87;;;0.87;;
6346;SDS011;3206;42.666;23.600;2022-12-29T00:09:59;0.63;;;0.63;;
6346;SDS011;3206;42.666;23.600;2022-12-29T00:12:25;0.50;;;0.50;;
6346;SDS011;3206;42.666;23.600;2022-12-29T00:15:12;0.40;;;0.40;;
6346;SDS011;3206;42.666;23.600;2022-12-29T00:17:56;0.70;;;0.70;;
6346;SDS011;3206;42.666;23.600;2022-12-29T00:20:22;0.80;;;0.80;;
6346;SDS011;3206;42.666;23.600;2022-12-29T00:23:08;0.60;;;0.60;;
6346;SDS011;3206;42.666;23.600;2022-12-29T00:25:53;0.50;;;0.50;;
6346;SDS011;3206;42.666;23.600;2022-12-29T00:28:36;0.87;;;0.87;;
6346;SDS011;3206;42.666;23.600;2022-12-29T00:31:20;3.10;;;1.10;;
6346;SDS011;3206;42.666;23.600;2022-12-29T00:34:06;0.80;;;0.80;;
6346;SDS011;3206;42.666;23.600;2022-12-29T00:36:50;0.73;;;0.73;;
6346;SDS011;3206;42.666;23.600;2022-12-29T00:39:17;0.93;;;0.93;;
6346;SDS011;3206;42.666;23.600;2022-12-29T00:42:04;0.60;;;0.60;;
6346;SDS011;3206;42.666;23.600;2022-12-29T00:44:59;0.67;;;0.67;;
6346;SDS011;3206;42.666;23.600;2022-12-29T00:47:25;0.77;;;0.77;;
6346;SDS011;3206;42.666;23.600;2022-12-29T00:49:52;3.50;;;0.73;;
6346;SDS011;3206;42.666;23.600;2022-12-29T00:52:17;0.40;;;0.40;;
6346;SDS011;3206;42.666;23.600;2022-12-29T00:54:44;0.83;;;0.83;;
6346;SDS011;3206;42.666;23.600;2022-12-29T00:57:12;0.50;;;0.50;;
6346;SDS011;3206;42.666;23.600;2022-12-29T00:59:39;0.70;;;0.70;;
6346;SDS011;3206;42.666;23.600;2022-12-29T01:02:06;0.60;;;0.60;;
6346;SDS011;3206;42.666;23.600;2022-12-29T01:04:32;2.30;;;1.07;;
6346;SDS011;3206;42.666;23.600;2022-12-29T01:06:59;0.87;;;0.87;;
6346;SDS011;3206;42.666;23.600;2022-12-29T01:09:25;0.40;;;0.40;;
6346;SDS011;3206;42.666;23.600;2022-12-29T01:12:09;0.57;;;0.57;;
6346;SDS011;3206;42.666;23.600;2022-12-29T01:14:37;0.53;;;0.53;;
6346;SDS011;3206;42.666;23.600;2022-12-29T01:17:04;0.50;;;0.50;;
6346;SDS011;3206;42.666;23.600;2022-12-29T01:19:30;0.60;;;0.60;;
6346;SDS011;3206;42.666;23.600;2022-12-29T01:21:57;0.40;;;0.40;;
6346;SDS011;3206;42.666;23.600;2022-12-29T01:24:23;0.63;;;0.63;;
6346;SDS011;3206;42.666;23.600;2022-12-29T01:26:51;0.40;;;0.40;;
6346;SDS011;3206;42.666;23.600;2022-12-29T01:29:19;0.47;;;0.47;;
6346;SDS011;3206;42.666;23.600;2022-12-29T01:31:47;0.60;;;0.60;;
6346;SDS011;3206;42.666;23.600;2022-12-29T01:34:14;0.50;;;0.50;;
6346;SDS011;3206;42.666;23.600;2022-12-29T01:36:40;0.93;;;0.73;;
6346;SDS011;3206;42.666;23.600;2022-12-29T01:39:07;0.50;;;0.50;;
6346;SDS011;3206;42.666;23.600;2022-12-29T01:41:33;0.90;;;0.90;;
6346;SDS011;3206;42.666;23.600;2022-12-29T01:44:00;0.40;;;0.40;;
6346;SDS011;3206;42.666;23.600;2022-12-29T01:46:28;0.40;;;0.40;;
6346;SDS011;3206;42.666;23.600;2022-12-29T01:48:59;0.60;;;0.60;;
6346;SDS011;3206;42.666;23.600;2022-12-29T01:51:28;0.53;;;0.53;;
6346;SDS011;3206;42.666;23.600;2022-12-29T01:53:57;0.40;;;0.40;;
6346;SDS011;3206;42.666;23.600;2022-12-29T01:56:25;0.93;;;0.70;;
6346;SDS011;3206;42.666;23.600;2022-12-29T01:58:54;0.50;;;0.50;;
6346;SDS011;3206;42.666;23.600;2022-12-29T02:01:21;0.67;;;0.67;;
6346;SDS011;3206;42.666;23.600;2022-12-29T02:03:47;0.60;;;0.60;;
6346;SDS011;3206;42.666;23.600;2022-12-29T02:06:17;0.60;;;0.60;;
6346;SDS011;3206;42.666;23.600;2022-12-29T02:08:45;0.70;;;0.70;;
6346;SDS011;3206;42.666;23.600;2022-12-29T02:11:12;0.50;;;0.50;;
6346;SDS011;3206;42.666;23.600;2022-12-29T02:13:39;0.40;;;0.40;;
6346;SDS011;3206;42.666;23.600;2022-12-29T02:16:09;0.50;;;0.50;;
6346;SDS011;3206;42.666;23.600;2022-12-29T02:18:41;0.40;;;0.40;;
6346;SDS011;3206;42.666;23.600;2022-12-29T02:21:21;0.70;;;0.70;;
6346;SDS011;3206;42.666;23.600;2022-12-29T02:26:57;0.83;;;0.83;;
6346;SDS011;3206;42.666;23.600;2022-12-29T02:29:46;0.40;;;0.40;;
6346;SDS011;3206;42.666;23.600;2022-12-29T02:32:18;0.57;;;0.57;;
6346;SDS011;3206;42.666;23.600;2022-12-29T02:34:47;0.57;;;0.57;;
6346;SDS011;3206;42.666;23.600;2022-12-29T02:37:19;0.90;;;0.60;;
6346;SDS011;3206;42.666;23.600;2022-12-29T02:39:50;0.40;;;0.40;;
6346;SDS011;3206;42.666;23.600;2022-12-29T02:42:20;1.07;;;0.97;;
6346;SDS011;3206;42.666;23.600;2022-12-29T02:44:51;0.60;;;0.60;;
6346;SDS011;3206;42.666;23.600;2022-12-29T02:47:23;0.50;;;0.50;;
6346;SDS011;3206;42.666;23.600;2022-12-29T02:49:53;0.83;;;0.83;;
6346;SDS011;3206;42.666;23.600;2022-12-29T02:52:25;0.70;;;0.70;;
6346;SDS011;3206;42.666;23.600;2022-12-29T02:54:54;0.73;;;0.73;;
6346;SDS011;3206;42.666;23.600;2022-12-29T02:57:28;1.00;;;1.00;;
6346;SDS011;3206;42.666;23.600;2022-12-29T02:59:56;0.30;;;0.30;;
6346;SDS011;3206;42.666;23.600;2022-12-29T03:05:17;0.60;;;0.60;;
6346;SDS011;3206;42.666;23.600;2022-12-29T03:07:47;1.50;;;1.40;;
6346;SDS011;3206;42.666;23.600;2022-12-29T03:10:20;0.50;;;0.50;;
6346;SDS011;3206;42.666;23.600;2022-12-29T03:12:48;0.57;;;0.57;;
6346;SDS011;3206;42.666;23.600;2022-12-29T03:15:39;0.50;;;0.50;;
6346;SDS011;3206;42.666;23.600;2022-12-29T03:18:29;0.40;;;0.40;;
6346;SDS011;3206;42.666;23.600;2022-12-29T03:21:05;1.13;;;1.03;;
6346;SDS011;3206;42.666;23.600;2022-12-29T03:23:32;0.53;;;0.53;;
6346;SDS011;3206;42.666;23.600;2022-12-29T03:26:00;0.80;;;0.70;;
6346;SDS011;3206;42.666;23.600;2022-12-29T03:28:28;0.83;;;0.83;;
6346;SDS011;3206;42.666;23.600;2022-12-29T03:30:55;0.93;;;0.93;;
6346;SDS011;3206;42.666;23.600;2022-12-29T03:33:24;1.70;;;0.70;;
6346;SDS011;3206;42.666;23.600;2022-12-29T03:35:51;0.40;;;0.40;;
6346;SDS011;3206;42.666;23.600;2022-12-29T03:38:22;0.33;;;0.33;;
6346;SDS011;3206;42.666;23.600;2022-12-29T03:40:51;0.50;;;0.50;;
6346;SDS011;3206;42.666;23.600;2022-12-29T03:43:18;0.50;;;0.50;;
6346;SDS011;3206;42.666;23.600;2022-12-29T03:45:45;0.97;;;0.97;;
6346;SDS011;3206;42.666;23.600;2022-12-29T03:48:11;0.90;;;0.90;;
6346;SDS011;3206;42.666;23.600;2022-12-29T03:50:38;0.83;;;0.83;;
6346;SDS011;3206;42.666;23.600;2022-12-29T03:53:04;0.47;;;0.47;;
6346;SDS011;3206;42.666;23.600;2022-12-29T03:55:32;0.50;;;0.50;;
6346;SDS011;3206;42.666;23.600;2022-12-29T03:57:58;0.80;;;0.80;;
6346;SDS011;3206;42.666;23.600;2022-12-29T04:00:24;0.77;;;0.77;;
6346;SDS011;3206;42.666;23.600;2022-12-29T04:02:51;0.50;;;0.50;;
6346;SDS011;3206;42.666;23.600;2022-12-29T04:05:17;0.50;;;0.50;;
6346;SDS011;3206;42.666;23.600;2022-12-29T04:07:44;0.30;;;0.30;;
6346;SDS011;3206;42.666;23.600;2022-12-29T04:10:10;0.70;;;0.70;;
6346;SDS011;3206;42.666;23.600;2022-12-29T04:12:38;0.90;;;0.90;;
6346;SDS011;3206;42.666;23.600;2022-12-29T04:15:07;1.30;;;1.20;;
6346;SDS011;3206;42.666;23.600;2022-12-29T04:17:33;0.70;;;0.67;;
6346;SDS011;3206;42.666;23.600;2022-12-29T04:20:00;0.73;;;0.73;;
6346;SDS011;3206;42.666;23.600;2022-12-29T04:22:40;1.03;;;0.90;;
6346;SDS011;3206;42.666;23.600;2022-12-29T04:25:07;0.40;;;0.40;;
6346;SDS011;3206;42.666;23.600;2022-12-29T04:27:33;0.60;;;0.60;;
6346;SDS011;3206;42.666;23.600;2022-12-29T04:30:01;0.60;;;0.60;;
6346;SDS011;3206;42.666;23.600;2022-12-29T04:32:27;1.27;;;1.17;;
6346;SDS011;3206;42.666;23.600;2022-12-29T04:34:54;0.70;;;0.70;;
6346;SDS011;3206;42.666;23.600;2022-12-29T04:37:20;0.47;;;0.47;;
6346;SDS011;3206;42.666;23.600;2022-12-29T04:39:46;0.40;;;0.40;;
6346;SDS011;3206;42.666;23.600;2022-12-29T04:42:13;0.53;;;0.53;;
6346;SDS011;3206;42.666;23.600;2022-12-29T04:44:39;0.50;;;0.50;;
6346;SDS011;3206;42.666;23.600;2022-12-29T04:47:07;0.70;;;0.70;;
6346;SDS011;3206;42.666;23.600;2022-12-29T04:49:33;0.83;;;0.83;;
6346;SDS011;3206;42.666;23.600;2022-12-29T04:52:00;0.60;;;0.60;;
6346;SDS011;3206;42.666;23.600;2022-12-29T04:54:27;0.60;;;0.60;;
6346;SDS011;3206;42.666;23.600;2022-12-29T04:56:53;0.73;;;0.73;;
6346;SDS011;3206;42.666;23.600;2022-12-29T04:59:20;0.83;;;0.83;;
6346;SDS011;3206;42.666;23.600;2022-12-29T05:01:46;0.67;;;0.67;;
6346;SDS011;3206;42.666;23.600;2022-12-29T05:04:14;0.50;;;0.50;;
6346;SDS011;3206;42.666;23.600;2022-12-29T05:06:40;1.43;;;1.33;;
6346;SDS011;3206;42.666;23.600;2022-12-29T05:09:06;0.60;;;0.60;;
6346;SDS011;3206;42.666;23.600;2022-12-29T05:11:33;0.77;;;0.77;;
6346;SDS011;3206;42.666;23.600;2022-12-29T05:13:59;0.70;;;0.70;;
6346;SDS011;3206;42.666;23.600;2022-12-29T05:16:26;0.40;;;0.40;;
6346;SDS011;3206;42.666;23.600;2022-12-29T05:18:52;1.60;;;0.87;;
6346;SDS011;3206;42.666;23.600;2022-12-29T05:21:20;0.40;;;0.40;;
6346;SDS011;3206;42.666;23.600;2022-12-29T05:23:46;0.80;;;0.80;;
6346;SDS011;3206;42.666;23.600;2022-12-29T05:26:12;0.70;;;0.70;;
6346;SDS011;3206;42.666;23.600;2022-12-29T05:28:39;0.63;;;0.63;;
6346;SDS011;3206;42.666;23.600;2022-12-29T05:31:05;0.93;;;0.80;;
6346;SDS011;3206;42.666;23.600;2022-12-29T05:33:31;0.50;;;0.50;;
6346;SDS011;3206;42.666;23.600;2022-12-29T05:36:02;0.47;;;0.47;;
6346;SDS011;3206;42.666;23.600;2022-12-29T05:38:30;0.50;;;0.50;;
6346;SDS011;3206;42.666;23.600;2022-12-29T05:40:57;0.87;;;0.77;;
6346;SDS011;3206;42.666;23.600;2022-12-29T05:43:23;1.30;;;1.20;;
6346;SDS011;3206;42.666;23.600;2022-12-29T05:45:49;0.50;;;0.50;;
6346;SDS011;3206;42.666;23.600;2022-12-29T05:48:16;0.47;;;0.47;;
6346;SDS011;3206;42.666;23.600;2022-12-29T05:50:42;0.40;;;0.40;;
6346;SDS011;3206;42.666;23.600;2022-12-29T05:53:09;1.43;;;0.90;;
6346;SDS011;3206;42.666;23.600;2022-12-29T05:55:37;0.47;;;0.47;;
6346;SDS011;3206;42.666;23.600;2022-12-29T05:58:03;0.50;;;0.50;;
6346;SDS011;3206;42.666;23.600;2022-12-29T06:00:29;0.60;;;0.60;;
6346;SDS011;3206;42.666;23.600;2022-12-29T06:02:56;0.80;;;0.80;;
6346;SDS011;3206;42.666;23.600;2022-12-29T06:05:22;0.87;;;0.87;;
6346;SDS011;3206;42.666;23.600;2022-12-29T06:07:49;0.60;;;0.60;;
6346;SDS011;3206;42.666;23.600;2022-12-29T06:10:15;1.17;;;1.17;;
6346;SDS011;3206;42.666;23.600;2022-12-29T06:12:43;1.13;;;1.07;;
6346;SDS011;3206;42.666;23.600;2022-12-29T06:15:10;2.23;;;2.13;;
6346;SDS011;3206;42.666;23.600;2022-12-29T06:17:36;1.13;;;1.07;;
6346;SDS011;3206;42.666;23.600;2022-12-29T06:20:03;0.60;;;0.60;;
6346;SDS011;3206;42.666;23.600;2022-12-29T06:22:29;1.30;;;1.30;;
6346;SDS011;3206;42.666;23.600;2022-12-29T06:24:55;2.73;;;2.40;;
6346;SDS011;3206;42.666;23.600;2022-12-29T06:27:22;1.20;;;1.10;;
6346;SDS011;3206;42.666;23.600;2022-12-29T06:29:50;1.73;;;1.63;;
6346;SDS011;3206;42.666;23.600;2022-12-29T06:32:16;0.73;;;0.73;;
6346;SDS011;3206;42.666;23.600;2022-12-29T06:34:42;0.73;;;0.73;;
6346;SDS011;3206;42.666;23.600;2022-12-29T06:37:09;0.57;;;0.57;;
6346;SDS011;3206;42.666;23.600;2022-12-29T06:39:36;1.03;;;1.03;;
6346;SDS011;3206;42.666;23.600;2022-12-29T06:42:02;1.40;;;1.33;;
6346;SDS011;3206;42.666;23.600;2022-12-29T06:44:29;0.63;;;0.63;;
6346;SDS011;3206;42.666;23.600;2022-12-29T06:46:57;3.80;;;1.83;;
6346;SDS011;3206;42.666;23.600;2022-12-29T06:49:23;1.07;;;1.03;;
6346;SDS011;3206;42.666;23.600;2022-12-29T06:51:49;1.30;;;1.30;;
6346;SDS011;3206;42.666;23.600;2022-12-29T06:54:16;0.97;;;0.80;;
6346;SDS011;3206;42.666;23.600;2022-12-29T06:56:42;0.50;;;0.50;;
6346;SDS011;3206;42.666;23.600;2022-12-29T06:59:08;1.67;;;1.13;;
6346;SDS011;3206;42.666;23.600;2022-12-29T07:01:35;0.97;;;0.93;;
6346;SDS011;3206;42.666;23.600;2022-12-29T07:04:03;0.60;;;0.60;;
6346;SDS011;3206;42.666;23.600;2022-12-29T07:06:29;1.17;;;1.17;;
6346;SDS011;3206;42.666;23.600;2022-12-29T07:08:56;1.30;;;1.30;;
6346;SDS011;3206;42.666;23.600;2022-12-29T07:11:22;0.77;;;0.77;;
6346;SDS011;3206;42.666;23.600;2022-12-29T07:13:49;1.70;;;0.97;;
6346;SDS011;3206;42.666;23.600;2022-12-29T07:16:15;0.63;;;0.63;;
6346;SDS011;3206;42.666;23.600;2022-12-29T07:18:42;0.50;;;0.50;;
6346;SDS011;3206;42.666;23.600;2022-12-29T07:21:09;2.10;;;1.00;;
6346;SDS011;3206;42.666;23.600;2022-12-29T07:23:36;1.50;;;1.40;;
6346;SDS011;3206;42.666;23.600;2022-12-29T07:26:04;0.80;;;0.80;;
6346;SDS011;3206;42.666;23.600;2022-12-29T07:28:32;0.90;;;0.90;;
6346;SDS011;3206;42.666;23.600;2022-12-29T07:30:58;0.97;;;0.97;;
6346;SDS011;3206;42.666;23.600;2022-12-29T07:33:25;2.00;;;1.10;;
6346;SDS011;3206;42.666;23.600;2022-12-29T07:35:51;0.50;;;0.50;;
6346;SDS011;3206;42.666;23.600;2022-12-29T07:38:19;1.40;;;1.40;;
6346;SDS011;3206;42.666;23.600;2022-12-29T07:40:45;0.43;;;0.43;;
6346;SDS011;3206;42.666;23.600;2022-12-29T07:43:11;2.10;;;0.57;;
6346;SDS011;3206;42.666;23.600;2022-12-29T07:45:38;1.87;;;0.93;;
6346;SDS011;3206;42.666;23.600;2022-12-29T07:48:05;1.30;;;1.17;;
6346;SDS011;3206;42.666;23.600;2022-12-29T07:50:32;1.57;;;1.10;;
6346;SDS011;3206;42.666;23.600;2022-12-29T07:52:59;0.70;;;0.70;;
6346;SDS011;3206;42.666;23.600;2022-12-29T07:55:26;1.00;;;1.00;;
6346;SDS011;3206;42.666;23.600;2022-12-29T07:57:53;0.40;;;0.40;;
6346;SDS011;3206;42.666;23.600;2022-12-29T08:00:19;0.60;;;0.60;;
6346;SDS011;3206;42.666;23.600;2022-12-29T08:02:46;1.03;;;1.03;;
6346;SDS011;3206;42.666;23.600;2022-12-29T08:05:12;1.67;;;1.63;;
6346;SDS011;3206;42.666;23.600;2022-12-29T08:07:39;1.47;;;1.27;;
6346;SDS011;3206;42.666;23.600;2022-12-29T08:10:05;0.73;;;0.73;;
6346;SDS011;3206;42.666;23.600;2022-12-29T08:12:33;0.70;;;0.70;;
6346;SDS011;3206;42.666;23.600;2022-12-29T08:15:00;0.40;;;0.40;;
6346;SDS011;3206;42.666;23.600;2022-12-29T08:17:26;3.87;;;1.00;;
6346;SDS011;3206;42.666;23.600;2022-12-29T08:19:52;0.80;;;0.80;;
6346;SDS011;3206;42.666;23.600;2022-12-29T08:22:19;2.17;;;1.37;;
6346;SDS011;3206;42.666;23.600;2022-12-29T08:24:45;0.73;;;0.73;;
6346;SDS011;3206;42.666;23.600;2022-12-29T08:27:12;1.37;;;1.37;;
6346;SDS011;3206;42.666;23.600;2022-12-29T08:29:39;1.07;;;0.97;;
6346;SDS011;3206;42.666;23.600;2022-12-29T08:32:06;2.20;;;1.43;;
6346;SDS011;3206;42.666;23.600;2022-12-29T08:34:32;1.63;;;1.53;;
6346;SDS011;3206;42.666;23.600;2022-12-29T08:36:59;1.00;;;1.00;;
6346;SDS011;3206;42.666;23.600;2022-12-29T08:39:25;1.53;;;1.43;;
6346;SDS011;3206;42.666;23.600;2022-12-29T08:41:52;0.80;;;0.80;;
6346;SDS011;3206;42.666;23.600;2022-12-29T08:44:19;1.13;;;1.03;;
6346;SDS011;3206;42.666;23.600;2022-12-29T08:46:46;6.27;;;1.40;;
6346;SDS011;3206;42.666;23.600;2022-12-29T08:49:13;1.97;;;1.83;;
6346;SDS011;3206;42.666;23.600;2022-12-29T08:51:39;6.87;;;1.80;;
6346;SDS011;3206;42.666;23.600;2022-12-29T08:54:06;2.00;;;1.23;;
6346;SDS011;3206;42.666;23.600;2022-12-29T08:56:32;0.87;;;0.87;;
6346;SDS011;3206;42.666;23.600;2022-12-29T08:58:59;3.13;;;2.30;;
6346;SDS011;3206;42.666;23.600;2022-12-29T09:01:25;2.50;;;1.27;;
6346;SDS011;3206;42.666;23.600;2022-12-29T09:03:54;2.33;;;2.13;;
6346;SDS011;3206;42.666;23.600;2022-12-29T09:06:20;0.80;;;0.80;;
6346;SDS011;3206;42.666;23.600;2022-12-29T09:08:47;3.73;;;2.33;;
6346;SDS011;3206;42.666;23.600;2022-12-29T09:11:14;1.47;;;1.47;;
6346;SDS011;3206;42.666;23.600;2022-12-29T09:13:41;1.00;;;1.00;;
6346;SDS011;3206;42.666;23.600;2022-12-29T09:16:07;1.67;;;1.57;;
6346;SDS011;3206;42.666;23.600;2022-12-29T09:18:34;3.23;;;2.40;;
6346;SDS011;3206;42.666;23.600;2022-12-29T09:21:03;1.27;;;1.27;;
6346;SDS011;3206;42.666;23.600;2022-12-29T09:23:30;1.90;;;1.80;;
6346;SDS011;3206;42.666;23.600;2022-12-29T09:25:56;3.23;;;2.27;;
6346;SDS011;3206;42.666;23.600;2022-12-29T09:28:23;1.93;;;1.83;;
6346;SDS011;3206;42.666;23.600;2022-12-29T09:30:49;2.40;;;1.37;;
6346;SDS011;3206;42.666;23.600;2022-12-29T09:33:16;1.20;;;1.20;;
6346;SDS011;3206;42.666;23.600;2022-12-29T09:35:43;2.37;;;1.73;;
6346;SDS011;3206;42.666;23.600;2022-12-29T09:38:11;0.70;;;0.70;;
6346;SDS011;3206;42.666;23.600;2022-12-29T09:40:37;1.77;;;1.67;;
6346;SDS011;3206;42.666;23.600;2022-12-29T09:43:09;2.60;;;1.57;;
6346;SDS011;3206;42.666;23.600;2022-12-29T09:45:40;1.77;;;1.67;;
6346;SDS011;3206;42.666;23.600;2022-12-29T09:48:10;1.83;;;1.73;;
6346;SDS011;3206;42.666;23.600;2022-12-29T09:50:39;1.57;;;1.47;;
6346;SDS011;3206;42.666;23.600;2022-12-29T09:53:09;0.67;;;0.67;;
6346;SDS011;3206;42.666;23.600;2022-12-29T09:55:40;8.20;;;2.53;;
6346;SDS011;3206;42.666;23.600;2022-12-29T09:58:10;3.33;;;2.37;;
6346;SDS011;3206;42.666;23.600;2022-12-29T10:00:39;2.07;;;1.87;;
6346;SDS011;3206;42.666;23.600;2022-12-29T10:03:10;1.83;;;1.77;;
6346;SDS011;3206;42.666;23.600;2022-12-29T10:05:42;2.77;;;2.27;;
6346;SDS011;3206;42.666;23.600;2022-12-29T10:08:16;2.23;;;2.10;;
6346;SDS011;3206;42.666;23.600;2022-12-29T10:10:50;3.00;;;1.53;;
6346;SDS011;3206;42.666;23.600;2022-12-29T10:13:23;2.20;;;2.10;;
6346;SDS011;3206;42.666;23.600;2022-12-29T10:15:54;1.57;;;1.57;;
6346;SDS011;3206;42.666;23.600;2022-12-29T10:21:13;3.03;;;2.13;;
6346;SDS011;3206;42.666;23.600;2022-12-29T10:23:42;1.97;;;1.87;;
6346;SDS011;3206;42.666;23.600;2022-12-29T10:26:12;1.30;;;1.30;;
6346;SDS011;3206;42.666;23.600;2022-12-29T10:28:40;2.20;;;1.67;;
6346;SDS011;3206;42.666;23.600;2022-12-29T10:31:09;2.13;;;1.87;;
6346;SDS011;3206;42.666;23.600;2022-12-29T10:33:39;4.37;;;1.27;;
6346;SDS011;3206;42.666;23.600;2022-12-29T10:36:10;1.63;;;1.63;;
6346;SDS011;3206;42.666;23.600;2022-12-29T10:38:39;1.93;;;1.27;;
6346;SDS011;3206;42.666;23.600;2022-12-29T10:41:09;3.27;;;2.30;;
6346;SDS011;3206;42.666;23.600;2022-12-29T10:43:41;2.10;;;2.00;;
6346;SDS011;3206;42.666;23.600;2022-12-29T10:46:10;2.23;;;2.13;;
6346;SDS011;3206;42.666;23.600;2022-12-29T10:48:37;1.40;;;1.30;;
6346;SDS011;3206;42.666;23.600;2022-12-29T10:51:04;2.73;;;2.57;;
6346;SDS011;3206;42.666;23.600;2022-12-29T10:53:33;2.10;;;1.63;;
6346;SDS011;3206;42.666;23.600;2022-12-29T10:56:01;1.20;;;1.20;;
6346;SDS011;3206;42.666;23.600;2022-12-29T10:58:28;4.30;;;2.50;;
6346;SDS011;3206;42.666;23.600;2022-12-29T11:00:57;2.40;;;2.20;;
6346;SDS011;3206;42.666;23.600;2022-12-29T11:03:36;2.97;;;2.33;;
6346;SDS011;3206;42.666;23.600;2022-12-29T11:06:07;1.20;;;1.20;;
6346;SDS011;3206;42.666;23.600;2022-12-29T11:08:35;1.57;;;1.47;;
6346;SDS011;3206;42.666;23.600;2022-12-29T11:11:03;2.23;;;2.07;;
6346;SDS011;3206;42.666;23.600;2022-12-29T11:13:30;2.53;;;2.33;;
6346;SDS011;3206;42.666;23.600;2022-12-29T11:15:58;2.80;;;2.60;;
6346;SDS011;3206;42.666;23.600;2022-12-29T11:18:26;1.73;;;1.63;;
6346;SDS011;3206;42.666;23.600;2022-12-29T11:20:54;1.67;;;1.57;;
6346;SDS011;3206;42.666;23.600;2022-12-29T11:23:23;1.80;;;1.57;;
6346;SDS011;3206;42.666;23.600;2022-12-29T11:26:04;1.73;;;1.63;;
6346;SDS011;3206;42.666;23.600;2022-12-29T11:28:31;1.80;;;1.70;;
6346;SDS011;3206;42.666;23.600;2022-12-29T11:31:00;4.27;;;2.20;;
6346;SDS011;3206;42.666;23.600;2022-12-29T11:33:27;1.97;;;1.87;;
6346;SDS011;3206;42.666;23.600;2022-12-29T11:35:56;1.30;;;1.20;;
6346;SDS011;3206;42.666;23.600;2022-12-29T11:38:25;1.57;;;1.47;;
6346;SDS011;3206;42.666;23.600;2022-12-29T11:40:53;2.30;;;2.20;;
6346;SDS011;3206;42.666;23.600;2022-12-29T11:43:21;2.90;;;2.53;;
6346;SDS011;3206;42.666;23.600;2022-12-29T11:45:49;2.90;;;1.90;;
6346;SDS011;3206;42.666;23.600;2022-12-29T11:48:20;2.47;;;2.27;;
6346;SDS011;3206;42.666;23.600;2022-12-29T11:50:48;5.20;;;3.07;;
6346;SDS011;3206;42.666;23.600;2022-12-29T11:53:17;3.80;;;2.77;;
6346;SDS011;3206;42.666;23.600;2022-12-29T11:55:50;3.43;;;2.83;;
6346;SDS011;3206;42.666;23.600;2022-12-29T11:58:17;2.77;;;2.20;;
6346;SDS011;3206;42.666;23.600;2022-12-29T12:00:43;1.40;;;1.20;;
6346;SDS011;3206;42.666;23.600;2022-12-29T12:03:12;3.30;;;2.53;;
6346;SDS011;3206;42.666;23.600;2022-12-29T12:05:43;2.07;;;1.83;;
6346;SDS011;3206;42.666;23.600;2022-12-29T12:08:12;1.80;;;1.70;;
6346;SDS011;3206;42.666;23.600;2022-12-29T12:10:42;2.17;;;2.07;;
6346;SDS011;3206;42.666;23.600;2022-12-29T12:13:17;1.90;;;1.80;;
6346;SDS011;3206;42.666;23.600;2022-12-29T12:15:47;1.63;;;1.53;;
6346;SDS011;3206;42.666;23.600;2022-12-29T12:18:17;2.10;;;1.63;;
6346;SDS011;3206;42.666;23.600;2022-12-29T12:20:46;1.60;;;1.50;;
6346;SDS011;3206;42.666;23.600;2022-12-29T12:23:17;1.67;;;1.57;;
6346;SDS011;3206;42.666;23.600;2022-12-29T12:25:47;1.90;;;1.80;;
6346;SDS011;3206;42.666;23.600;2022-12-29T12:28:19;1.37;;;1.27;;
6346;SDS011;3206;42.666;23.600;2022-12-29T12:30:47;2.60;;;2.00;;
6346;SDS011;3206;42.666;23.600;2022-12-29T12:33:16;2.67;;;2.47;;
6346;SDS011;3206;42.666;23.600;2022-12-29T12:35:47;3.00;;;2.73;;
6346;SDS011;3206;42.666;23.600;2022-12-29T12:38:18;10.50;;;3.20;;
6346;SDS011;3206;42.666;23.600;2022-12-29T12:40:53;1.43;;;1.33;;
6346;SDS011;3206;42.666;23.600;2022-12-29T12:43:33;8.47;;;3.97;;
6346;SDS011;3206;42.666;23.600;2022-12-29T12:46:07;2.37;;;2.17;;
6346;SDS011;3206;42.666;23.600;2022-12-29T12:48:51;2.80;;;2.00;;
6346;SDS011;3206;42.666;23.600;2022-12-29T12:51:22;3.67;;;1.90;;
6346;SDS011;3206;42.666;23.600;2022-12-29T12:54:01;1.53;;;1.50;;
6346;SDS011;3206;42.666;23.600;2022-12-29T12:56:39;4.97;;;2.83;;
6346;SDS011;3206;42.666;23.600;2022-12-29T12:59:10;3.30;;;3.00;;
6346;SDS011;3206;42.666;23.600;2022-12-29T13:01:42;2.53;;;2.20;;
6346;SDS011;3206;42.666;23.600;2022-12-29T13:07:06;1.77;;;1.60;;
6346;SDS011;3206;42.666;23.600;2022-12-29T13:09:38;2.23;;;2.00;;
6346;SDS011;3206;42.666;23.600;2022-12-29T13:12:11;3.20;;;2.93;;
6346;SDS011;3206;42.666;23.600;2022-12-29T13:14:46;2.37;;;2.20;;
6346;SDS011;3206;42.666;23.600;2022-12-29T13:17:15;2.07;;;1.97;;
6346;SDS011;3206;42.666;23.600;2022-12-29T13:19:45;5.20;;;2.90;;
6346;SDS011;3206;42.666;23.600;2022-12-29T13:22:16;1.60;;;1.60;;
6346;SDS011;3206;42.666;23.600;2022-12-29T13:24:51;3.17;;;2.87;;
6346;SDS011;3206;42.666;23.600;2022-12-29T13:27:20;4.70;;;3.33;;
6346;SDS011;3206;42.666;23.600;2022-12-29T13:29:50;7.57;;;5.00;;
6346;SDS011;3206;42.666;23.600;2022-12-29T13:32:21;5.67;;;3.97;;
6346;SDS011;3206;42.666;23.600;2022-12-29T13:34:52;3.20;;;2.90;;
6346;SDS011;3206;42.666;23.600;2022-12-29T13:37:22;8.07;;;3.53;;
6346;SDS011;3206;42.666;23.600;2022-12-29T13:39:52;3.13;;;2.90;;
6346;SDS011;3206;42.666;23.600;2022-12-29T13:42:21;2.90;;;2.67;;
6346;SDS011;3206;42.666;23.600;2022-12-29T13:44:51;2.47;;;2.17;;
6346;SDS011;3206;42.666;23.600;2022-12-29T13:47:20;1.73;;;1.67;;
6346;SDS011;3206;42.666;23.600;2022-12-29T13:49:48;5.67;;;2.83;;
6346;SDS011;3206;42.666;23.600;2022-12-29T13:52:15;2.93;;;2.50;;
6346;SDS011;3206;42.666;23.600;2022-12-29T13:54:47;2.53;;;2.33;;
6346;SDS011;3206;42.666;23.600;2022-12-29T13:57:19;1.43;;;1.43;;
6346;SDS011;3206;42.666;23.600;2022-12-29T13:59:54;3.53;;;2.10;;
6346;SDS011;3206;42.666;23.600;2022-12-29T14:02:24;2.47;;;2.27;;
6346;SDS011;3206;42.666;23.600;2022-12-29T14:04:56;4.47;;;1.67;;
6346;SDS011;3206;42.666;23.600;2022-12-29T14:07:23;3.77;;;3.30;;
6346;SDS011;3206;42.666;23.600;2022-12-29T14:09:52;3.93;;;2.63;;
6346;SDS011;3206;42.666;23.600;2022-12-29T14:12:19;2.03;;;1.93;;
6346;SDS011;3206;42.666;23.600;2022-12-29T14:14:47;2.90;;;2.63;;
6346;SDS011;3206;42.666;23.600;2022-12-29T14:17:16;4.13;;;3.23;;
6346;SDS011;3206;42.666;23.600;2022-12-29T14:19:44;2.73;;;2.50;;
6346;SDS011;3206;42.666;23.600;2022-12-29T14:22:11;2.93;;;2.63;;
6346;SDS011;3206;42.666;23.600;2022-12-29T14:24:39;4.10;;;2.80;;
6346;SDS011;3206;42.666;23.600;2022-12-29T14:30:07;4.57;;;3.93;;
6346;SDS011;3206;42.666;23.600;2022-12-29T14:33:03;4.50;;;3.90;;
6346;SDS011;3206;42.666;23.600;2022-12-29T14:38:18;4.93;;;3.40;;
6346;SDS011;3206;42.666;23.600;2022-12-29T14:40:46;3.50;;;3.20;;
6346;SDS011;3206;42.666;23.600;2022-12-29T14:43:12;14.87;;;3.33;;
6346;SDS011;3206;42.666;23.600;2022-12-29T14:45:41;1.97;;;1.87;;
6346;SDS011;3206;42.666;23.600;2022-12-29T14:48:21;3.97;;;3.67;;
6346;SDS011;3206;42.666;23.600;2022-12-29T14:50:54;2.80;;;2.20;;
6346;SDS011;3206;42.666;23.600;2022-12-29T14:56:08;2.13;;;1.90;;
6346;SDS011;3206;42.666;23.600;2022-12-29T14:58:38;2.17;;;2.00;;
6346;SDS011;3206;42.666;23.600;2022-12-29T15:01:15;2.00;;;1.90;;
6346;SDS011;3206;42.666;23.600;2022-12-29T15:03:43;3.27;;;2.40;;
6346;SDS011;3206;42.666;23.600;2022-12-29T15:06:11;2.87;;;2.67;;
6346;SDS011;3206;42.666;23.600;2022-12-29T15:08:43;2.20;;;2.10;;
6346;SDS011;3206;42.666;23.600;2022-12-29T15:11:12;3.07;;;2.77;;
6346;SDS011;3206;42.666;23.600;2022-12-29T15:13:40;4.20;;;2.13;;
6346;SDS011;3206;42.666;23.600;2022-12-29T15:16:21;2.73;;;2.53;;
6346;SDS011;3206;42.666;23.600;2022-12-29T15:18:48;5.93;;;3.60;;
6346;SDS011;3206;42.666;23.600;2022-12-29T15:21:15;8.30;;;3.40;;
6346;SDS011;3206;42.666;23.600;2022-12-29T15:23:42;13.03;;;7.20;;
6346;SDS011;3206;42.666;23.600;2022-12-29T15:26:08;6.43;;;4.93;;
6346;SDS011;3206;42.666;23.600;2022-12-29T15:28:36;8.17;;;4.13;;
6346;SDS011;3206;42.666;23.600;2022-12-29T15:31:03;4.47;;;4.13;;